createdAt,value
2019-06-20T00:01:17.851Z,19.10
2019-06-20T00:03:48.232Z,19.20
2019-06-20T00:06:18.467Z,19.10
2019-06-20T00:08:48.795Z,19.20
2019-06-20T00:11:19.121Z,19.30
2019-06-20T00:13:49.470Z,19.20
2019-06-20T00:16:19.681Z,19.10
2019-06-20T00:18:50.015Z,19.10
2019-06-20T00:21:20.304Z,19.00
2019-06-20T00:23:50.523Z,18.90
2019-06-20T00:26:20.624Z,18.90
2019-06-20T00:28:50.876Z,18.80
2019-06-20T00:31:21.228Z,18.70
2019-06-20T00:33:51.609Z,18.70
2019-06-20T00:36:21.981Z,18.80
2019-06-20T00:38:52.083Z,18.80
2019-06-20T00:41:22.320Z,18.80
2019-06-20T00:43:52.500Z,19.00
2019-06-20T00:46:22.837Z,19.00
2019-06-20T00:48:53.043Z,18.90
2019-06-20T00:51:23.392Z,18.80
2019-06-20T00:53:53.591Z,18.70
2019-06-20T00:56:23.761Z,18.80
2019-06-20T00:58:54.048Z,18.90
2019-06-20T01:01:24.286Z,18.90
2019-06-20T01:03:54.444Z,19.00
2019-06-20T01:06:24.723Z,19.20
2019-06-20T01:08:54.941Z,19.30
2019-06-20T01:11:25.500Z,19.30
2019-06-20T01:13:55.595Z,19.30
2019-06-20T01:16:25.837Z,19.40
2019-06-20T01:18:56.432Z,19.40
2019-06-20T01:21:26.792Z,19.10
2019-06-20T01:23:56.966Z,19.00
2019-06-20T01:26:27.211Z,19.00
2019-06-20T01:28:57.535Z,18.90
2019-06-20T01:31:28.915Z,18.90
2019-06-20T01:33:59.013Z,18.90
2019-06-20T01:36:30.382Z,18.80
2019-06-20T01:39:00.602Z,18.60
2019-06-20T01:41:32.463Z,18.60
2019-06-20T01:44:02.778Z,18.70
2019-06-20T01:46:33.081Z,18.60
2019-06-20T01:49:03.316Z,18.50
2019-06-20T01:51:33.525Z,18.50
2019-06-20T01:54:03.780Z,18.50
2019-06-20T01:56:33.990Z,18.60
2019-06-20T01:59:04.540Z,18.50
2019-06-20T02:01:34.819Z,18.50
2019-06-20T02:04:05.078Z,18.50
2019-06-20T02:06:35.373Z,18.50
2019-06-20T02:09:08.250Z,18.60
2019-06-20T02:11:38.472Z,18.60
2019-06-20T02:14:08.873Z,18.60
2019-06-20T02:16:39.118Z,18.60
2019-06-20T02:19:09.376Z,18.60
2019-06-20T02:21:39.581Z,18.60
2019-06-20T02:24:10.548Z,18.60
2019-06-20T02:26:40.785Z,18.60
2019-06-20T02:29:11.082Z,18.70
2019-06-20T02:31:41.308Z,18.70
2019-06-20T02:34:11.515Z,18.80
2019-06-20T02:36:41.852Z,18.70
2019-06-20T02:39:12.822Z,18.60
2019-06-20T02:41:43.126Z,18.70
2019-06-20T02:44:29.287Z,18.70
2019-06-20T02:46:45.272Z,18.70
2019-06-20T02:49:15.491Z,18.60
2019-06-20T02:51:46.182Z,18.60
2019-06-20T02:54:16.454Z,18.60
2019-06-20T02:56:46.703Z,18.60
2019-06-20T02:59:16.887Z,18.40
2019-06-20T03:01:47.121Z,18.40
2019-06-20T03:04:17.340Z,18.40
2019-06-20T03:06:47.560Z,18.40
2019-06-20T03:09:17.814Z,18.40
2019-06-20T03:11:48.094Z,18.40
2019-06-20T03:14:18.224Z,18.40
2019-06-20T03:16:48.351Z,18.30
2019-06-20T03:19:18.775Z,18.20
2019-06-20T03:21:49.028Z,18.10
2019-06-20T03:24:19.322Z,18.10
2019-06-20T03:26:49.559Z,18.10
2019-06-20T03:29:19.687Z,18.10
2019-06-20T03:31:49.996Z,18.10
2019-06-20T03:34:20.145Z,18.10
2019-06-20T03:36:50.434Z,18.10
2019-06-20T03:39:20.787Z,18.00
2019-06-20T03:41:51.074Z,18.10
2019-06-20T03:44:21.295Z,18.20
2019-06-20T03:46:51.545Z,18.30
2019-06-20T03:49:21.983Z,18.40
2019-06-20T03:51:52.371Z,18.60
2019-06-20T03:54:22.870Z,18.60
2019-06-20T03:56:53.538Z,18.70
2019-06-20T03:59:23.748Z,18.80
2019-06-20T04:01:54.000Z,19.10
2019-06-20T04:04:24.516Z,19.90
2019-06-20T04:06:54.657Z,20.90
2019-06-20T04:09:24.965Z,22.10
2019-06-20T04:11:55.177Z,23.00
2019-06-20T04:14:25.808Z,23.60
2019-06-20T04:16:55.973Z,24.00
2019-06-20T04:19:26.502Z,24.10
2019-06-20T04:21:56.667Z,24.60
2019-06-20T04:24:28.051Z,24.50
2019-06-20T04:26:58.361Z,25.70
2019-06-20T04:29:28.609Z,25.60
2019-06-20T04:31:58.895Z,25.90
2019-06-20T04:34:29.115Z,26.50
2019-06-20T04:36:59.480Z,25.90
2019-06-20T04:39:29.570Z,26.10
2019-06-20T04:41:59.831Z,27.00
2019-06-20T04:44:30.164Z,27.30
2019-06-20T04:47:02.071Z,27.80
2019-06-20T04:49:32.328Z,28.10
2019-06-20T04:52:02.725Z,28.20
2019-06-20T04:54:33.091Z,27.70
2019-06-20T04:57:04.246Z,27.80
2019-06-20T04:59:34.527Z,28.50
2019-06-20T05:02:05.079Z,28.10
2019-06-20T05:04:35.266Z,28.70
2019-06-20T05:07:19.224Z,29.30
2019-06-20T05:09:49.424Z,28.90
2019-06-20T05:12:19.664Z,28.90
2019-06-20T05:14:50.126Z,29.20
2019-06-20T05:17:20.512Z,28.70
2019-06-20T05:19:51.636Z,28.80
2019-06-20T05:22:21.828Z,29.00
2019-06-20T05:24:52.007Z,29.10
2019-06-20T05:27:22.170Z,29.60
2019-06-20T05:29:52.290Z,30.10
2019-06-20T05:32:22.583Z,29.40
2019-06-20T05:34:52.889Z,29.40
2019-06-20T05:37:23.121Z,29.20
2019-06-20T05:39:53.330Z,29.20
2019-06-20T05:42:23.495Z,28.40
2019-06-20T05:44:53.688Z,27.80
2019-06-20T05:47:23.859Z,27.90
2019-06-20T05:49:55.017Z,27.40
2019-06-20T05:52:25.295Z,26.50
2019-06-20T05:54:55.494Z,26.60
2019-06-20T05:57:26.045Z,26.90
2019-06-20T05:59:56.303Z,26.40
2019-06-20T06:02:26.594Z,26.60
2019-06-20T06:04:56.687Z,26.30
2019-06-20T06:07:26.870Z,26.10
2019-06-20T06:09:57.131Z,26.60
2019-06-20T06:12:27.453Z,26.60
2019-06-20T06:15:00.776Z,26.40
2019-06-20T06:17:29.637Z,26.50
2019-06-20T06:19:59.889Z,26.60
2019-06-20T06:22:30.290Z,26.70
2019-06-20T06:25:00.496Z,26.10
2019-06-20T06:27:30.948Z,26.20
2019-06-20T06:30:01.266Z,25.80
2019-06-20T06:32:40.084Z,25.30
2019-06-20T06:35:04.601Z,24.60
2019-06-20T06:37:34.919Z,24.10
2019-06-20T06:40:10.643Z,23.90
2019-06-20T06:42:41.002Z,23.60
2019-06-20T06:45:13.599Z,23.40
2019-06-20T06:47:43.874Z,22.90
2019-06-20T06:50:14.379Z,22.60
2019-06-20T06:52:44.653Z,22.50
2019-06-20T06:55:16.504Z,22.30
2019-06-20T06:57:46.848Z,22.10
2019-06-20T07:00:17.251Z,21.90
2019-06-20T07:02:47.573Z,21.90
2019-06-20T07:05:18.369Z,22.00
2019-06-20T07:07:48.716Z,22.00
2019-06-20T07:10:19.247Z,22.10
2019-06-20T07:12:49.479Z,22.00
2019-06-20T07:15:19.988Z,22.00
2019-06-20T07:17:50.330Z,21.70
2019-06-20T07:20:20.759Z,21.70
2019-06-20T07:22:51.018Z,21.80
2019-06-20T07:25:21.203Z,21.90
2019-06-20T07:27:51.479Z,21.90
2019-06-20T07:30:22.009Z,22.00
2019-06-20T07:32:52.423Z,22.00
2019-06-20T07:35:22.767Z,22.30
2019-06-20T07:37:53.155Z,22.60
2019-06-20T07:40:23.555Z,22.90
2019-06-20T07:42:54.021Z,23.10
2019-06-20T07:45:28.018Z,23.10
2019-06-20T07:47:58.244Z,23.00
2019-06-20T07:50:28.537Z,22.90
2019-06-20T07:53:02.434Z,22.50
2019-06-20T07:55:30.731Z,22.20
2019-06-20T07:58:01.149Z,22.00
2019-06-20T08:00:31.807Z,21.70
2019-06-20T08:03:01.960Z,21.60
2019-06-20T08:05:32.230Z,21.70
2019-06-20T08:08:02.501Z,21.60
2019-06-20T08:10:32.869Z,21.70
2019-06-20T08:13:03.122Z,21.90
2019-06-20T08:15:33.218Z,22.40
2019-06-20T08:18:03.552Z,22.40
2019-06-20T08:20:33.737Z,22.70
2019-06-20T08:23:03.985Z,23.20
2019-06-20T08:25:34.309Z,23.50
2019-06-20T08:28:04.550Z,23.50
2019-06-20T08:30:36.152Z,23.50
2019-06-20T08:33:11.960Z,23.70
2019-06-20T08:35:40.543Z,23.90
2019-06-20T08:38:10.773Z,24.00
2019-06-20T08:40:41.098Z,24.10
2019-06-20T08:43:11.399Z,24.20
2019-06-20T08:45:43.667Z,24.50
2019-06-20T08:48:13.984Z,23.90
2019-06-20T08:50:44.217Z,24.20
2019-06-20T08:53:14.427Z,24.60
2019-06-20T08:55:44.564Z,24.80
2019-06-20T08:58:14.803Z,24.90
2019-06-20T09:00:45.234Z,24.70
2019-06-20T09:03:15.470Z,24.80
2019-06-20T09:05:45.778Z,24.80
2019-06-20T09:08:15.969Z,24.60
2019-06-20T09:10:46.221Z,24.30
2019-06-20T09:13:16.366Z,24.10
2019-06-20T09:15:46.666Z,24.30
2019-06-20T09:18:16.989Z,24.60
2019-06-20T09:20:47.313Z,24.40
2019-06-20T09:23:17.550Z,24.40
2019-06-20T09:25:47.697Z,24.40
2019-06-20T09:28:17.925Z,24.50
2019-06-20T09:30:48.225Z,24.60
2019-06-20T09:33:18.459Z,24.50
2019-06-20T09:35:48.659Z,24.30
2019-06-20T09:38:18.898Z,24.00
2019-06-20T09:40:49.014Z,24.20
2019-06-20T09:43:27.523Z,24.00
2019-06-20T09:45:52.736Z,24.10
2019-06-20T09:48:24.022Z,24.00
2019-06-20T09:50:54.544Z,24.00
2019-06-20T09:53:24.876Z,24.10
2019-06-20T09:55:55.692Z,24.50
2019-06-20T09:58:26.084Z,24.80
2019-06-20T10:00:57.347Z,25.00
2019-06-20T10:03:27.918Z,25.20
2019-06-20T10:05:58.239Z,25.00
2019-06-20T10:08:28.598Z,24.80
2019-06-20T10:10:58.782Z,24.80
2019-06-20T10:13:32.393Z,25.10
2019-06-20T10:16:00.866Z,25.50
2019-06-20T10:18:31.110Z,25.90
2019-06-20T10:21:01.398Z,26.00
2019-06-20T10:23:31.815Z,26.50
2019-06-20T10:26:02.102Z,26.60
2019-06-20T10:28:34.632Z,26.50
2019-06-20T10:31:05.002Z,27.00
2019-06-20T10:33:35.323Z,26.90
2019-06-20T10:36:05.714Z,26.60
2019-06-20T10:38:36.077Z,27.10
2019-06-20T10:41:06.378Z,27.30
2019-06-20T10:43:36.614Z,27.30
2019-06-20T10:46:06.802Z,27.20
2019-06-20T10:48:37.039Z,27.40
2019-06-20T10:51:25.390Z,27.10
2019-06-20T10:53:55.640Z,27.10
2019-06-20T10:56:25.834Z,27.50
2019-06-20T10:58:56.007Z,27.40
2019-06-20T11:01:26.154Z,27.30
2019-06-20T11:03:56.314Z,27.00
2019-06-20T11:06:26.518Z,27.30
2019-06-20T11:08:56.658Z,27.60
2019-06-20T11:11:26.853Z,27.30
2019-06-20T11:13:57.124Z,27.50
2019-06-20T11:16:27.328Z,27.90
2019-06-20T11:18:57.482Z,27.90
2019-06-20T11:21:27.903Z,28.10
2019-06-20T11:23:58.174Z,28.30
2019-06-20T11:26:28.275Z,28.40
2019-06-20T11:28:58.378Z,27.90
2019-06-20T11:31:28.484Z,27.40
2019-06-20T11:33:58.568Z,27.70
2019-06-20T11:36:28.785Z,27.70
2019-06-20T11:38:58.780Z,28.20
2019-06-20T11:41:29.011Z,28.60
2019-06-20T11:43:59.167Z,29.10
2019-06-20T11:46:29.313Z,29.20
2019-06-20T11:48:59.499Z,28.70
2019-06-20T11:51:29.564Z,29.00
2019-06-20T11:53:59.641Z,29.20
2019-06-20T11:56:29.713Z,29.10
2019-06-20T11:58:59.882Z,28.60
2019-06-20T12:01:33.117Z,28.60
2019-06-20T12:04:01.789Z,28.50
2019-06-20T12:06:31.939Z,28.30
2019-06-20T12:09:02.039Z,27.90
2019-06-20T12:11:33.525Z,27.50
2019-06-20T12:14:03.707Z,27.60
2019-06-20T12:16:33.861Z,27.70
2019-06-20T12:19:04.097Z,27.90
2019-06-20T12:21:34.281Z,28.10
2019-06-20T12:24:04.575Z,28.00
2019-06-20T12:26:34.777Z,28.60
2019-06-20T12:29:05.063Z,29.00
2019-06-20T12:31:35.199Z,29.20
2019-06-20T12:34:05.338Z,28.90
2019-06-20T12:36:35.400Z,28.60
2019-06-20T12:39:06.948Z,28.30
2019-06-20T12:41:39.688Z,28.40
2019-06-20T12:44:10.161Z,28.20
2019-06-20T12:46:40.995Z,28.00
2019-06-20T12:49:11.306Z,28.10
2019-06-20T12:51:42.104Z,28.00
2019-06-20T12:54:12.365Z,28.20
2019-06-20T12:56:43.935Z,28.80
2019-06-20T12:59:14.158Z,29.20
2019-06-20T13:01:46.532Z,29.50
2019-06-20T13:04:16.056Z,29.50
2019-06-20T13:06:46.952Z,29.30
2019-06-20T13:09:18.364Z,29.00
2019-06-20T13:11:49.292Z,29.20
2019-06-20T13:14:20.264Z,28.80
2019-06-20T13:16:50.374Z,28.70
2019-06-20T13:19:20.607Z,28.40
2019-06-20T13:21:50.653Z,28.30
2019-06-20T13:24:20.900Z,28.40
2019-06-20T13:26:51.113Z,28.60
2019-06-20T13:29:21.437Z,28.60
2019-06-20T13:32:03.518Z,28.80
2019-06-20T13:34:23.399Z,28.30
2019-06-20T13:36:53.522Z,28.00
2019-06-20T13:39:23.692Z,28.00
2019-06-20T13:41:53.801Z,28.40
2019-06-20T13:44:24.016Z,28.80
2019-06-20T13:46:54.088Z,28.90
2019-06-20T13:49:25.336Z,28.30
2019-06-20T13:51:55.456Z,28.40
2019-06-20T13:54:25.629Z,28.30
2019-06-20T13:56:56.280Z,28.60
2019-06-20T13:59:26.473Z,28.10
2019-06-20T14:02:06.256Z,27.90
2019-06-20T14:04:29.512Z,27.60
2019-06-20T14:06:59.621Z,27.10
2019-06-20T14:09:29.622Z,26.90
2019-06-20T14:11:59.743Z,26.40
2019-06-20T14:14:29.915Z,26.20
2019-06-20T14:16:59.973Z,26.00
2019-06-20T14:19:30.360Z,25.60
2019-06-20T14:22:00.491Z,25.50
2019-06-20T14:24:30.563Z,25.30
2019-06-20T14:27:00.600Z,25.30
2019-06-20T14:29:30.900Z,24.40
2019-06-20T14:32:01.103Z,24.10
2019-06-20T14:34:31.281Z,23.90
2019-06-20T14:37:01.382Z,23.70
2019-06-20T14:39:34.121Z,23.60
2019-06-20T14:42:03.371Z,23.40
2019-06-20T14:44:33.629Z,23.20
2019-06-20T14:47:04.204Z,23.00
2019-06-20T14:49:34.380Z,22.80
2019-06-20T14:52:04.512Z,22.80
2019-06-20T14:54:34.675Z,22.50
2019-06-20T14:57:04.804Z,22.30
2019-06-20T14:59:35.568Z,22.20
2019-06-20T15:02:05.741Z,22.20
2019-06-20T15:04:35.861Z,22.10
2019-06-20T15:07:05.977Z,22.10
2019-06-20T15:09:36.011Z,22.20
2019-06-20T15:12:06.144Z,22.20
2019-06-20T15:14:36.240Z,22.40
2019-06-20T15:17:06.407Z,22.60
2019-06-20T15:19:36.535Z,23.10
2019-06-20T15:22:06.658Z,23.30
2019-06-20T15:24:38.210Z,23.60
2019-06-20T15:27:10.286Z,24.00
2019-06-20T15:29:42.659Z,24.30
2019-06-20T15:32:12.874Z,24.60
2019-06-20T15:34:42.898Z,24.50
2019-06-20T15:37:13.021Z,24.60
2019-06-20T15:39:43.192Z,24.50
2019-06-20T15:42:13.188Z,24.70
2019-06-20T15:44:43.344Z,24.80
2019-06-20T15:47:14.460Z,25.00
2019-06-20T15:49:44.537Z,25.00
2019-06-20T15:52:14.728Z,25.10
2019-06-20T15:54:44.900Z,25.30
2019-06-20T15:57:15.022Z,25.60
2019-06-20T15:59:45.189Z,25.70
2019-06-20T16:02:15.401Z,25.70
2019-06-20T16:04:45.557Z,25.60
2019-06-20T16:07:15.671Z,25.40
2019-06-20T16:09:45.694Z,25.50
2019-06-20T16:12:15.738Z,25.40
2019-06-20T16:14:45.769Z,25.40
2019-06-20T16:17:15.892Z,25.20
2019-06-20T16:19:45.975Z,25.00
2019-06-20T16:22:16.086Z,25.00
2019-06-20T16:24:46.138Z,24.80
2019-06-20T16:27:16.330Z,24.80
2019-06-20T16:29:46.422Z,24.70
2019-06-20T16:32:16.547Z,24.70
2019-06-20T16:34:46.653Z,24.60
2019-06-20T16:37:16.801Z,24.50
2019-06-20T16:39:47.476Z,24.40
2019-06-20T16:42:18.929Z,24.30
2019-06-20T16:44:49.162Z,24.30
2019-06-20T16:47:19.280Z,24.20
2019-06-20T16:49:49.439Z,24.20
2019-06-20T16:52:19.478Z,24.10
2019-06-20T16:54:51.729Z,24.10
2019-06-20T16:57:45.819Z,24.10
2019-06-20T17:00:17.775Z,24.10
2019-06-20T17:02:47.808Z,24.00
2019-06-20T17:05:18.053Z,24.20
2019-06-20T17:07:48.366Z,24.10
2019-06-20T17:10:18.559Z,24.00
2019-06-20T17:12:48.716Z,23.90
2019-06-20T17:15:18.966Z,23.70
2019-06-20T17:17:49.077Z,23.60
2019-06-20T17:20:19.730Z,23.50
2019-06-20T17:22:49.928Z,23.50
2019-06-20T17:25:20.371Z,23.40
2019-06-20T17:27:50.543Z,23.30
2019-06-20T17:30:21.566Z,23.30
2019-06-20T17:32:51.623Z,23.30
2019-06-20T17:35:22.258Z,23.40
2019-06-20T17:37:52.384Z,23.50
2019-06-20T17:40:22.837Z,23.50
2019-06-20T17:42:53.073Z,23.30
2019-06-20T17:45:23.768Z,23.20
2019-06-20T17:47:53.943Z,23.20
2019-06-20T17:50:25.947Z,23.10
2019-06-20T17:52:55.909Z,23.00
2019-06-20T17:55:26.080Z,22.90
2019-06-20T17:57:56.289Z,23.10
2019-06-20T18:00:26.649Z,23.00
2019-06-20T18:02:56.769Z,23.10
2019-06-20T18:05:26.967Z,23.00
2019-06-20T18:07:57.092Z,23.00
2019-06-20T18:10:27.253Z,22.90
2019-06-20T18:13:00.348Z,22.90
2019-06-20T18:15:33.738Z,22.80
2019-06-20T18:18:04.734Z,22.80
2019-06-20T18:20:35.459Z,22.80
2019-06-20T18:23:06.454Z,22.70
2019-06-20T18:25:36.709Z,22.70
2019-06-20T18:28:06.851Z,22.70
2019-06-20T18:30:45.976Z,22.60
2019-06-20T18:33:16.519Z,22.60
2019-06-20T18:35:47.037Z,22.70
2019-06-20T18:38:17.289Z,22.70
2019-06-20T18:40:47.892Z,22.60
2019-06-20T18:43:17.932Z,22.60
2019-06-20T18:45:48.237Z,22.60
2019-06-20T18:48:18.473Z,22.40
2019-06-20T18:50:48.608Z,22.30
2019-06-20T18:53:19.492Z,22.20
2019-06-20T18:55:50.849Z,22.20
2019-06-20T18:58:21.043Z,22.10
2019-06-20T19:00:51.233Z,22.00
2019-06-20T19:03:21.541Z,22.00
2019-06-20T19:05:52.788Z,21.80
2019-06-20T19:08:22.875Z,21.70
2019-06-20T19:10:53.117Z,21.80
2019-06-20T19:13:23.254Z,21.70
2019-06-20T19:15:57.935Z,21.70
2019-06-20T19:18:28.248Z,21.70
2019-06-20T19:20:58.365Z,21.70
2019-06-20T19:23:28.546Z,21.60
2019-06-20T19:25:58.769Z,21.50
2019-06-20T19:28:28.985Z,21.40
2019-06-20T19:30:59.161Z,21.30
2019-06-20T19:33:29.295Z,21.40
2019-06-20T19:35:59.509Z,21.30
2019-06-20T19:38:29.633Z,21.20
2019-06-20T19:40:59.819Z,21.30
2019-06-20T19:43:30.031Z,21.20
2019-06-20T19:46:00.249Z,21.20
2019-06-20T19:48:30.463Z,21.20
2019-06-20T19:51:00.806Z,21.20
2019-06-20T19:53:31.026Z,21.20
2019-06-20T19:56:01.228Z,21.10
2019-06-20T19:58:31.436Z,21.00
2019-06-20T20:01:01.684Z,20.90
2019-06-20T20:03:31.888Z,20.90
2019-06-20T20:06:02.231Z,20.80
2019-06-20T20:08:32.523Z,20.80
2019-06-20T20:11:02.711Z,20.70
2019-06-20T20:13:32.973Z,20.80
2019-06-20T20:16:03.138Z,20.80
2019-06-20T20:18:33.450Z,20.70
2019-06-20T20:21:03.644Z,20.60
2019-06-20T20:23:33.873Z,20.60
2019-06-20T20:26:04.172Z,20.60
2019-06-20T20:28:34.415Z,20.60
2019-06-20T20:31:04.573Z,20.50
2019-06-20T20:33:34.780Z,20.60
2019-06-20T20:36:05.063Z,20.50
2019-06-20T20:38:35.160Z,20.40
2019-06-20T20:41:05.305Z,20.30
2019-06-20T20:43:35.428Z,20.40
2019-06-20T20:46:05.615Z,20.40
2019-06-20T20:48:35.773Z,20.40
2019-06-20T20:51:05.988Z,20.30
2019-06-20T20:53:35.987Z,20.20
2019-06-20T20:56:06.296Z,20.10
2019-06-20T20:58:36.516Z,20.20
2019-06-20T21:01:35.330Z,20.30
2019-06-20T21:04:05.872Z,20.20
2019-06-20T21:06:36.136Z,20.20
2019-06-20T21:09:07.928Z,20.20
2019-06-20T21:11:39.320Z,20.20
2019-06-20T21:14:09.580Z,20.20
2019-06-20T21:16:39.750Z,20.10
2019-06-20T21:19:09.874Z,20.00
2019-06-20T21:21:40.092Z,20.00
2019-06-20T21:24:11.244Z,20.00
2019-06-20T21:26:49.394Z,19.90
2019-06-20T21:29:13.266Z,19.80
2019-06-20T21:31:43.444Z,19.60
2019-06-20T21:34:13.590Z,19.70
2019-06-20T21:36:43.824Z,19.80
2019-06-20T21:39:14.009Z,19.80
2019-06-20T21:41:44.292Z,19.80
2019-06-20T21:44:14.423Z,19.80
2019-06-20T21:46:44.670Z,19.70
2019-06-20T21:49:14.887Z,19.90
2019-06-20T21:51:45.044Z,19.90
2019-06-20T21:54:15.252Z,19.80
2019-06-20T21:56:45.414Z,19.70
2019-06-20T21:59:15.525Z,19.70
2019-06-20T22:01:48.382Z,19.70
2019-06-20T22:04:17.601Z,19.80
2019-06-20T22:06:47.761Z,19.60
2019-06-20T22:09:17.966Z,19.60
2019-06-20T22:11:48.609Z,19.70
2019-06-20T22:14:18.802Z,19.70
2019-06-20T22:16:49.047Z,19.60
2019-06-20T22:19:19.169Z,19.60
2019-06-20T22:21:49.353Z,19.60
2019-06-20T22:24:19.408Z,19.50
2019-06-20T22:26:49.582Z,19.50
2019-06-20T22:29:19.759Z,19.50
2019-06-20T22:31:49.937Z,19.50
2019-06-20T22:34:20.132Z,19.50
2019-06-20T22:36:50.337Z,19.50
2019-06-20T22:39:20.451Z,19.50
2019-06-20T22:41:50.666Z,19.40
2019-06-20T22:44:20.818Z,19.30
2019-06-20T22:46:50.985Z,19.10
2019-06-20T22:49:22.099Z,18.80
2019-06-20T22:51:52.352Z,18.80
2019-06-20T22:54:22.486Z,18.90
2019-06-20T22:56:52.693Z,18.70
2019-06-20T22:59:22.748Z,18.70
2019-06-20T23:01:52.932Z,18.80
2019-06-20T23:04:23.074Z,18.80
2019-06-20T23:06:56.751Z,18.90
2019-06-20T23:09:27.280Z,18.90
2019-06-20T23:11:56.914Z,18.90
2019-06-20T23:14:26.889Z,19.10
2019-06-20T23:16:57.127Z,19.10
2019-06-20T23:19:27.335Z,19.10
2019-06-20T23:21:57.493Z,19.10
2019-06-20T23:24:27.703Z,19.00
2019-06-20T23:26:57.946Z,18.90
2019-06-20T23:29:28.095Z,19.00
2019-06-20T23:31:58.386Z,19.00
2019-06-20T23:34:28.412Z,19.00
2019-06-20T23:37:11.652Z,18.90
2019-06-20T23:39:30.347Z,18.90
2019-06-20T23:42:00.528Z,18.90
2019-06-20T23:44:30.587Z,18.80
2019-06-20T23:47:00.753Z,18.80
2019-06-20T23:49:30.953Z,18.80
2019-06-20T23:52:06.612Z,18.80
2019-06-20T23:54:36.683Z,18.90
2019-06-20T23:57:06.853Z,18.90
2019-06-20T23:59:37.060Z,18.80
